Time;durP1;ratioP1;P1;durP2;ratioP2;P2;SDS_P1;SDS_P2;PMS_P1;PMS_P2;Temp;Humidity;BMP_temperature;BMP_pressure;BME280_temperature;BME280_humidity;BME280_pressure;Samples;Min_cycle;Max_cycle;Signal;HPM_P1;HPM_P2
2023/10/02 00:01:17;;;;;;;0.60;0.60;;;11.20;99.90;;;;;;5014469;28;20209;-83
2023/10/02 00:03:44;;;;;;;0.40;0.20;;;11.20;99.90;;;;;;5008461;28;20190;-79
2023/10/02 00:06:11;;;;;;;0.40;0.20;;;11.10;99.90;;;;;;5008429;28;20208;-76
2023/10/02 00:09:03;;;;;;;1.08;0.98;;;11.30;99.90;;;;;;5017612;28;20277;-78
2023/10/02 00:11:39;;;;;;;0.40;0.20;;;;;;;;;;5011002;28;20613;-79
2023/10/02 00:14:19;;;;;;;0.40;0.20;;;11.30;99.90;;;;;;4988713;28;20190;-83
2023/10/02 00:17:13;;;;;;;0.60;0.30;;;11.40;99.90;;;;;;5008564;28;20221;-83
2023/10/02 00:19:41;;;;;;;0.40;0.30;;;11.50;99.90;;;;;;5007909;28;20214;-78
2023/10/02 00:22:38;;;;;;;1.67;1.58;;;11.50;99.90;;;;;;4993703;28;21170;-82
2023/10/02 00:25:17;;;;;;;2.55;0.80;;;11.50;99.90;;;;;;4994426;28;20225;-83
2023/10/02 00:27:48;;;;;;;2.25;0.85;;;11.60;99.90;;;;;;5011150;28;20268;-79
2023/10/02 00:30:15;;;;;;;0.60;0.52;;;;;;;;;;5004168;28;20198;-80
2023/10/02 00:32:42;;;;;;;0.50;0.40;;;11.60;99.90;;;;;;5012058;28;20236;-77
2023/10/02 00:35:11;;;;;;;0.50;0.50;;;11.60;99.90;;;;;;5014101;28;20214;-79
2023/10/02 00:37:47;;;;;;;0.60;0.50;;;11.60;99.90;;;;;;4998367;28;20194;-78
2023/10/02 00:40:22;;;;;;;0.50;0.40;;;11.50;99.90;;;;;;5011910;28;20264;-78
2023/10/02 00:45:49;;;;;;;1.08;0.98;;;11.50;99.90;;;;;;5010597;28;20213;-85
2023/10/02 00:48:25;;;;;;;4.95;2.67;;;11.50;99.90;;;;;;4994294;28;20690;-84
2023/10/02 00:50:54;;;;;;;0.60;0.43;;;11.60;99.90;;;;;;5010566;28;20220;-85
2023/10/02 00:53:37;;;;;;;0.40;0.20;;;11.60;99.90;;;;;;5010283;28;20501;-82
2023/10/02 00:56:19;;;;;;;0.40;0.30;;;11.60;99.90;;;;;;5008085;28;20190;-79
2023/10/02 00:58:54;;;;;;;4.43;2.05;;;10.80;99.90;;;;;;4990389;28;20275;-79
2023/10/02 01:01:20;;;;;;;0.60;0.60;;;11.60;99.90;;;;;;5008225;28;20186;-83
2023/10/02 01:06:31;;;;;;;1.80;1.25;;;11.30;99.90;;;;;;5015434;28;20483;-78
2023/10/02 01:08:59;;;;;;;1.30;0.73;;;11.30;99.90;;;;;;5010942;28;20277;-78
2023/10/02 01:11:25;;;;;;;0.45;0.35;;;11.40;99.90;;;;;;5010455;28;20329;-78
2023/10/02 01:13:54;;;;;;;0.73;0.73;;;11.50;99.90;;;;;;5017678;28;20230;-83
2023/10/02 01:16:20;;;;;;;0.60;0.50;;;11.40;99.90;;;;;;5005155;28;20182;-82
2023/10/02 01:18:48;;;;;;;0.80;0.80;;;11.40;99.90;;;;;;5003546;28;21250;-80
2023/10/02 01:21:18;;;;;;;0.40;0.22;;;11.40;99.90;;;;;;5010757;28;20179;-80
2023/10/02 01:24:07;;;;;;;0.63;0.52;;;11.40;99.90;;;;;;5009560;28;20201;-81
2023/10/02 01:26:43;;;;;;;0.50;0.40;;;11.40;99.90;;;;;;5008524;28;20175;-83
2023/10/02 01:29:13;;;;;;;1.10;0.68;;;11.40;99.90;;;;;;5008305;28;20806;-85
2023/10/02 01:31:44;;;;;;;0.50;0.47;;;11.30;99.90;;;;;;5013951;28;20333;-81
2023/10/02 01:34:34;;;;;;;2.45;1.80;;;11.40;99.90;;;;;;5006155;28;20269;-83
2023/10/02 01:37:00;;;;;;;0.50;0.40;;;11.20;99.90;;;;;;5010135;28;20216;-80
2023/10/02 01:39:26;;;;;;;0.75;0.70;;;11.10;99.90;;;;;;5009123;28;20248;-81
2023/10/02 01:41:54;;;;;;;0.40;0.20;;;11.00;99.90;;;;;;5014158;28;20195;-78
2023/10/02 01:44:24;;;;;;;0.82;0.82;;;11.00;99.90;;;;;;4997132;28;20199;-80
2023/10/02 01:46:50;;;;;;;0.60;0.60;;;11.10;99.90;;;;;;5010001;28;20190;-82
2023/10/02 01:49:26;;;;;;;0.82;0.82;;;11.00;99.90;;;;;;5009974;28;20210;-81
2023/10/02 01:51:55;;;;;;;1.58;0.95;;;10.90;99.90;;;;;;5014186;28;20206;-80
2023/10/02 01:54:22;;;;;;;0.40;0.35;;;11.50;99.90;;;;;;4994640;28;20190;-81
2023/10/02 01:56:48;;;;;;;2.60;0.95;;;10.90;99.90;;;;;;5010823;28;20198;-79
2023/10/02 01:59:19;;;;;;;0.40;0.30;;;10.90;99.90;;;;;;4988437;28;20279;-79
2023/10/02 02:01:49;;;;;;;0.40;0.32;;;11.90;99.90;;;;;;5005900;28;20178;-82
2023/10/02 02:04:19;;;;;;;2.35;1.25;;;10.70;99.90;;;;;;5006168;28;20222;-83
2023/10/02 02:06:51;;;;;;;0.40;0.30;;;10.80;99.90;;;;;;5001920;28;20214;-84
2023/10/02 02:09:23;;;;;;;0.40;0.30;;;10.80;99.90;;;;;;5008003;28;20214;-79
2023/10/02 02:12:06;;;;;;;0.40;0.20;;;10.80;99.90;;;;;;4989504;28;20216;-78
2023/10/02 02:14:32;;;;;;;1.55;0.85;;;10.70;99.90;;;;;;5002586;28;20201;-81
2023/10/02 02:16:59;;;;;;;3.10;1.27;;;;;;;;;;4989923;28;20190;-81
2023/10/02 02:19:25;;;;;;;1.45;1.15;;;10.60;99.90;;;;;;5015584;28;20187;-78
2023/10/02 02:21:56;;;;;;;0.80;0.80;;;10.60;99.90;;;;;;4993735;28;20210;-78
2023/10/02 02:24:23;;;;;;;0.40;0.30;;;11.90;99.90;;;;;;5010158;28;20438;-81
2023/10/02 02:26:57;;;;;;;1.23;1.23;;;10.50;99.90;;;;;;5004193;28;20245;-81
2023/10/02 02:29:24;;;;;;;0.95;0.85;;;10.60;99.90;;;;;;5000664;28;20206;-77
2023/10/02 02:31:56;;;;;;;1.42;1.20;;;10.60;99.90;;;;;;5005777;28;20229;-82
2023/10/02 02:34:23;;;;;;;0.40;0.20;;;10.60;99.90;;;;;;4990845;28;20205;-80
2023/10/02 02:36:50;;;;;;;0.75;0.75;;;10.60;99.90;;;;;;5006892;28;20190;-79
2023/10/02 02:39:18;;;;;;;0.88;0.88;;;9.90;99.90;;;;;;5000400;28;20268;-83
2023/10/02 02:41:43;;;;;;;0.80;0.73;;;10.70;99.90;;;;;;4987540;28;20209;-78
2023/10/02 02:46:57;;;;;;;0.73;0.73;;;13.60;99.90;;;;;;5003780;28;21515;-83
2023/10/02 02:49:25;;;;;;;0.40;0.40;;;10.90;99.90;;;;;;5004741;28;20230;-81
2023/10/02 02:51:55;;;;;;;1.05;0.85;;;11.00;99.90;;;;;;4991277;28;20211;-82
2023/10/02 02:54:25;;;;;;;0.65;0.65;;;11.00;99.90;;;;;;5015677;28;20453;-83
2023/10/02 02:56:56;;;;;;;0.75;0.75;;;11.00;99.90;;;;;;5010509;28;20189;-79
2023/10/02 02:59:27;;;;;;;0.40;0.30;;;11.00;99.90;;;;;;4992471;28;20218;-83
2023/10/02 03:02:08;;;;;;;0.63;0.57;;;;;;;;;;5006273;28;20186;-80
2023/10/02 03:04:35;;;;;;;0.40;0.35;;;11.10;99.90;;;;;;5003901;28;20210;-82
2023/10/02 03:07:07;;;;;;;0.40;0.30;;;11.10;99.90;;;;;;4985683;28;20183;-80
2023/10/02 03:09:34;;;;;;;0.40;0.20;;;;;;;;;;5002900;28;20226;-81
2023/10/02 03:12:00;;;;;;;0.40;0.30;;;11.10;99.90;;;;;;4987891;28;20822;-80
2023/10/02 03:14:28;;;;;;;0.40;0.20;;;11.10;99.90;;;;;;5001331;28;20366;-84
2023/10/02 03:16:54;;;;;;;0.40;0.30;;;10.90;99.90;;;;;;5004933;28;20656;-82
2023/10/02 03:19:19;;;;;;;12.40;1.67;;;10.80;99.90;;;;;;5006030;28;20253;-83
2023/10/02 03:21:47;;;;;;;2.70;1.60;;;10.80;99.90;;;;;;5005806;28;20190;-80
2023/10/02 03:24:18;;;;;;;0.60;0.55;;;12.40;99.90;;;;;;5007167;28;20193;-78
2023/10/02 03:26:49;;;;;;;0.40;0.32;;;10.80;99.90;;;;;;5000131;28;20233;-76
2023/10/02 03:29:21;;;;;;;6.18;2.40;;;10.90;99.90;;;;;;5012382;28;20241;-80
2023/10/02 03:31:51;;;;;;;0.88;0.88;;;11.00;99.90;;;;;;5010794;28;20214;-82
2023/10/02 03:34:29;;;;;;;1.55;1.45;;;;;;;;;;4992523;28;20191;-80
2023/10/02 03:42:25;;;;;;;0.50;0.40;;;11.00;99.90;;;;;;5010349;28;20272;-81
2023/10/02 03:44:54;;;;;;;1.70;0.75;;;12.30;99.90;;;;;;5008024;28;20746;-81
2023/10/02 03:47:20;;;;;;;1.13;0.90;;;11.00;99.90;;;;;;5008771;28;20190;-82
2023/10/02 03:49:45;;;;;;;0.40;0.20;;;11.00;99.90;;;;;;5007261;28;20790;-83
2023/10/02 03:52:14;;;;;;;0.73;0.73;;;11.00;99.90;;;;;;5011450;28;20496;-82
2023/10/02 03:54:43;;;;;;;0.80;0.68;;;12.60;99.90;;;;;;5008142;28;20187;-83
2023/10/02 03:57:10;;;;;;;0.40;0.30;;;11.00;99.90;;;;;;5008815;28;20311;-81
2023/10/02 03:59:51;;;;;;;0.40;0.20;;;11.00;99.90;;;;;;5008342;28;20206;-80
2023/10/02 04:02:30;;;;;;;1.90;1.27;;;11.00;99.90;;;;;;5006609;28;20190;-79
2023/10/02 04:04:56;;;;;;;0.50;0.40;;;11.00;99.90;;;;;;5018170;28;20254;-78
2023/10/02 04:07:24;;;;;;;1.27;0.93;;;10.80;99.90;;;;;;4998230;28;20210;-84
2023/10/02 04:09:51;;;;;;;3.40;3.10;;;;;;;;;;4998661;28;20462;-80
2023/10/02 04:12:17;;;;;;;0.40;0.28;;;;;;;;;;5008149;28;20214;-83
2023/10/02 04:14:43;;;;;;;0.85;0.85;;;10.70;99.90;;;;;;5011230;28;20193;-81
2023/10/02 04:17:12;;;;;;;0.40;0.30;;;;;;;;;;4997260;28;20195;-81
2023/10/02 04:19:43;;;;;;;0.55;0.55;;;;;;;;;;5011359;28;20457;-80
2023/10/02 04:22:16;;;;;;;1.80;1.70;;;10.80;99.90;;;;;;4988838;28;20218;-80
2023/10/02 04:24:53;;;;;;;0.90;0.90;;;10.80;99.90;;;;;;4995306;28;20217;-81
2023/10/02 04:27:25;;;;;;;0.60;0.50;;;10.90;99.90;;;;;;5013025;28;20186;-80
2023/10/02 04:30:20;;;;;;;0.88;0.88;;;10.80;99.90;;;;;;5012266;28;20198;-82
2023/10/02 04:32:51;;;;;;;0.40;0.20;;;10.80;99.90;;;;;;4996211;28;20183;-77
2023/10/02 04:38:07;;;;;;;0.50;0.50;;;10.90;99.90;;;;;;5008924;28;20206;-83
2023/10/02 04:40:38;;;;;;;1.40;1.30;;;10.80;99.90;;;;;;5007948;28;20179;-78
2023/10/02 04:43:22;;;;;;;0.82;0.77;;;10.80;99.90;;;;;;5020064;28;20216;-78
2023/10/02 04:46:14;;;;;;;0.55;0.55;;;10.80;99.90;;;;;;5014659;28;20183;-82
2023/10/02 04:48:42;;;;;;;0.68;0.68;;;10.80;99.90;;;;;;4995243;28;20267;-83
2023/10/02 04:51:11;;;;;;;1.30;1.20;;;10.80;99.90;;;;;;4992682;28;20214;-79
2023/10/02 04:53:39;;;;;;;0.50;0.40;;;11.30;99.90;;;;;;5008675;28;20190;-82
2023/10/02 04:58:50;;;;;;;12.02;2.05;;;10.70;99.90;;;;;;5011060;28;20225;-81
2023/10/02 05:01:24;;;;;;;0.40;0.30;;;11.70;99.90;;;;;;4989341;28;20190;-80
2023/10/02 05:03:52;;;;;;;0.40;0.22;;;10.70;99.90;;;;;;4995049;28;20193;-79
2023/10/02 05:06:39;;;;;;;0.50;0.40;;;11.50;99.90;;;;;;4990502;28;20248;-79
2023/10/02 05:11:52;;;;;;;0.50;0.40;;;10.80;99.90;;;;;;5004139;28;20205;-79
2023/10/02 05:14:26;;;;;;;0.40;0.20;;;10.80;99.90;;;;;;4986151;28;20198;-83
2023/10/02 05:17:17;;;;;;;0.40;0.20;;;10.70;99.90;;;;;;5001020;28;20242;-77
2023/10/02 05:20:07;;;;;;;0.40;0.30;;;10.80;99.90;;;;;;5009900;28;20206;-80
2023/10/02 05:22:36;;;;;;;0.40;0.30;;;10.80;99.90;;;;;;4992806;28;20202;-82
2023/10/02 05:25:07;;;;;;;0.40;0.40;;;10.60;99.90;;;;;;4987059;28;20281;-77
2023/10/02 05:27:37;;;;;;;0.40;0.20;;;10.80;99.90;;;;;;5004283;28;20209;-78
2023/10/02 05:30:12;;;;;;;1.25;1.15;;;10.80;99.90;;;;;;5001792;28;20207;-79
2023/10/02 05:32:39;;;;;;;0.85;0.85;;;10.90;99.90;;;;;;4988610;28;20189;-85
2023/10/02 05:37:40;;;;;;;0.68;0.68;;;10.90;99.90;;;;;;5012624;28;20190;-87
2023/10/02 05:40:37;;;;;;;1.45;0.70;;;11.00;99.90;;;;;;4995569;28;20218;-86
2023/10/02 05:50:57;;;;;;;0.40;0.20;;;12.80;99.90;;;;;;5005672;28;20213;-87
2023/10/02 05:53:34;;;;;;;0.40;0.30;;;13.90;99.90;;;;;;4989101;28;20683;-85
2023/10/02 05:58:36;;;;;;;0.47;0.30;;;14.80;99.90;;;;;;4994398;28;20464;-85
2023/10/02 06:01:12;;;;;;;5.33;3.20;;;15.20;99.90;;;;;;4988039;28;20540;-87
2023/10/02 06:03:37;;;;;;;0.80;0.80;;;15.10;99.90;;;;;;5005181;28;20455;-86
2023/10/02 06:06:15;;;;;;;0.97;0.97;;;15.10;99.90;;;;;;4981071;28;20437;-84
2023/10/02 06:08:51;;;;;;;0.40;0.30;;;15.90;99.90;;;;;;4986214;28;20457;-83
2023/10/02 06:11:27;;;;;;;2.20;2.00;;;16.70;99.90;;;;;;4985071;28;20464;-88
2023/10/02 06:13:57;;;;;;;0.70;0.63;;;17.50;99.90;;;;;;4998035;28;20503;-85
2023/10/02 06:16:29;;;;;;;0.57;0.57;;;17.90;99.90;;;;;;5001451;28;20433;-85
2023/10/02 06:19:02;;;;;;;1.80;0.83;;;18.30;99.90;;;;;;4999588;28;20453;-83
2023/10/02 06:21:32;;;;;;;0.50;0.40;;;18.80;99.90;;;;;;4983215;28;20453;-84
2023/10/02 06:23:58;;;;;;;1.43;0.90;;;19.70;99.90;;;;;;4985955;28;20453;-83
2023/10/02 06:26:29;;;;;;;1.53;1.43;;;;;;;;;;4975518;28;20528;-88
2023/10/02 06:29:13;;;;;;;0.40;0.20;;;20.10;99.90;;;;;;4978614;28;20485;-84
2023/10/02 06:31:41;;;;;;;1.20;1.20;;;20.90;99.90;;;;;;4982713;28;20461;-87
2023/10/02 06:34:08;;;;;;;0.60;0.50;;;22.10;99.90;;;;;;4987340;28;20517;-83
2023/10/02 06:36:45;;;;;;;3.70;1.63;;;22.90;99.90;;;;;;5011784;28;20519;-86
2023/10/02 06:39:13;;;;;;;0.50;0.40;;;23.90;99.90;;;;;;4988401;28;20480;-86
2023/10/02 06:41:39;;;;;;;0.77;0.77;;;;;;;;;;4986465;28;20501;-87
2023/10/02 06:44:14;;;;;;;0.83;0.83;;;24.00;99.90;;;;;;4989572;28;20490;-85
2023/10/02 06:46:52;;;;;;;6.03;1.80;;;25.30;99.90;;;;;;4989425;28;20476;-84
2023/10/02 06:49:20;;;;;;;2.97;1.27;;;26.10;99.90;;;;;;4989412;28;20481;-84
2023/10/02 06:51:49;;;;;;;3.00;1.00;;;26.50;97.70;;;;;;5011894;28;20479;-82
2023/10/02 06:54:19;;;;;;;2.37;0.93;;;26.30;96.80;;;;;;4993985;28;20453;-84
2023/10/02 06:56:46;;;;;;;1.43;1.33;;;26.80;96.10;;;;;;4993774;28;20446;-83
2023/10/02 06:59:13;;;;;;;1.27;0.83;;;27.40;95.20;;;;;;4991597;28;21095;-87
2023/10/02 07:02:01;;;;;;;6.33;2.10;;;27.80;92.80;;;;;;5006528;28;21375;-84
2023/10/02 07:04:30;;;;;;;2.30;1.73;;;28.20;91.70;;;;;;5008472;28;21540;-84
2023/10/02 07:07:03;;;;;;;2.40;1.97;;;28.10;90.20;;;;;;5004673;28;20522;-82
2023/10/02 07:09:36;;;;;;;1.10;0.93;;;27.70;89.50;;;;;;4987834;28;21225;-84
2023/10/02 07:12:08;;;;;;;2.70;2.50;;;27.60;87.50;;;;;;4996623;28;20479;-83
2023/10/02 07:14:38;;;;;;;2.57;1.53;;;27.60;88.20;;;;;;4986876;28;20523;-87
2023/10/02 07:17:17;;;;;;;1.47;1.37;;;27.10;87.80;;;;;;5006561;28;20445;-86
2023/10/02 07:19:50;;;;;;;0.70;0.53;;;28.00;88.80;;;;;;4991026;28;21574;-86
2023/10/02 07:22:18;;;;;;;0.50;0.50;;;28.50;85.50;;;;;;4990357;28;21055;-85
2023/10/02 07:24:46;;;;;;;1.30;1.20;;;28.40;86.20;;;;;;4985852;28;20454;-85
2023/10/02 07:27:24;;;;;;;2.00;1.50;;;28.60;85.00;;;;;;4990640;28;20555;-84
2023/10/02 07:29:55;;;;;;;0.70;0.70;;;28.60;84.90;;;;;;4987633;28;20496;-83
2023/10/02 07:32:24;;;;;;;2.87;1.20;;;28.50;83.50;;;;;;5006629;28;20915;-85
2023/10/02 07:34:51;;;;;;;0.70;0.70;;;28.00;83.30;;;;;;4995741;28;20516;-81
2023/10/02 07:37:21;;;;;;;1.30;1.20;;;28.00;84.00;;;;;;4992024;28;20452;-83
2023/10/02 07:39:58;;;;;;;1.67;1.10;;;28.80;83.60;;;;;;4984198;28;20582;-87
2023/10/02 07:42:29;;;;;;;2.00;1.80;;;29.20;81.50;;;;;;4990177;28;20463;-86
2023/10/02 07:45:11;;;;;;;8.80;4.30;;;29.20;82.10;;;;;;4984513;28;20971;-86
2023/10/02 07:47:55;;;;;;;5.13;1.33;;;29.50;81.50;;;;;;4988528;28;20497;-84
2023/10/02 07:50:33;;;;;;;3.37;1.10;;;29.10;79.50;;;;;;4988197;28;20450;-86
2023/10/02 07:53:01;;;;;;;4.13;1.20;;;28.20;80.90;;;;;;5004963;28;20423;-83
2023/10/02 07:55:27;;;;;;;1.10;1.00;;;27.60;82.60;;;;;;5011446;28;20484;-84
2023/10/02 07:57:58;;;;;;;1.10;0.93;;;27.50;85.70;;;;;;4993749;28;20442;-84
2023/10/02 08:00:38;;;;;;;2.03;1.67;;;28.30;85.30;;;;;;4998086;28;20465;-82
2023/10/02 08:03:31;;;;;;;1.70;1.33;;;29.30;83.30;;;;;;4993029;28;20456;-81
2023/10/02 08:06:00;;;;;;;1.43;1.17;;;29.50;80.90;;;;;;5007847;28;20512;-84
2023/10/02 08:08:31;;;;;;;0.70;0.70;;;29.30;80.30;;;;;;5005984;28;20592;-82
2023/10/02 08:10:58;;;;;;;1.07;0.97;;;28.70;82.00;;;;;;4989781;28;20479;-86
2023/10/02 08:13:35;;;;;;;8.37;1.37;;;28.40;83.60;;;;;;4996423;28;20910;-87
2023/10/02 08:16:15;;;;;;;1.13;1.03;;;29.20;82.20;;;;;;5008719;28;20448;-83
2023/10/02 08:18:57;;;;;;;0.77;0.77;;;28.90;80.50;;;;;;5008287;28;20458;-85
2023/10/02 08:21:34;;;;;;;2.10;1.07;;;28.30;82.70;;;;;;5002044;28;20493;-85
2023/10/02 08:24:02;;;;;;;2.17;1.50;;;27.80;82.80;;;;;;4999637;28;20460;-83
2023/10/02 08:26:38;;;;;;;2.50;1.77;;;;;;;;;;4986643;28;20890;-85
2023/10/02 08:29:10;;;;;;;1.37;1.03;;;28.70;82.00;;;;;;4989163;28;20482;-82
2023/10/02 08:31:43;;;;;;;1.23;1.13;;;;;;;;;;5017567;28;20550;-85
2023/10/02 08:34:12;;;;;;;2.27;1.90;;;29.00;81.00;;;;;;4987118;28;20509;-85
2023/10/02 08:36:41;;;;;;;1.53;1.03;;;29.80;77.50;;;;;;4984886;28;20451;-86
2023/10/02 08:39:11;;;;;;;1.63;1.53;;;30.00;77.30;;;;;;4986086;28;20556;-87
2023/10/02 08:41:43;;;;;;;1.53;1.23;;;29.20;78.90;;;;;;5003570;28;20458;-86
2023/10/02 08:44:20;;;;;;;1.30;1.20;;;29.60;79.00;;;;;;5003862;28;20457;-86
2023/10/02 08:46:48;;;;;;;2.23;2.13;;;29.60;79.40;;;;;;4985404;28;20446;-85
2023/10/02 08:49:13;;;;;;;2.10;1.90;;;29.90;78.40;;;;;;5001051;28;20461;-83
2023/10/02 08:51:48;;;;;;;1.57;1.37;;;29.90;77.60;;;;;;4983591;28;21012;-87
2023/10/02 08:54:15;;;;;;;1.63;1.53;;;30.10;77.90;;;;;;4996323;28;20520;-85
2023/10/02 08:56:47;;;;;;;2.93;2.20;;;;;;;;;;5005149;28;20429;-87
2023/10/02 08:59:18;;;;;;;5.60;2.60;;;29.90;79.30;;;;;;4988592;28;20587;-86
2023/10/02 09:01:47;;;;;;;6.03;2.20;;;29.80;80.10;;;;;;4991565;28;20520;-87
2023/10/02 09:09:36;;;;;;;1.10;1.10;;;29.00;85.10;;;;;;5004636;28;20540;-85
2023/10/02 09:12:03;;;;;;;1.63;1.53;;;29.30;82.20;;;;;;5003794;28;20485;-83
2023/10/02 09:17:23;;;;;;;5.30;2.40;;;29.80;80.30;;;;;;4999658;28;20497;-84
2023/10/02 09:19:58;;;;;;;1.40;1.30;;;30.40;78.90;;;;;;4998409;28;20474;-84
2023/10/02 09:22:25;;;;;;;1.53;1.33;;;30.80;77.20;;;;;;4987345;28;20527;-87
2023/10/02 09:25:26;;;;;;;1.90;1.50;;;31.40;76.70;;;;;;4985172;28;20907;-85
2023/10/02 09:28:13;;;;;;;2.73;2.63;;;31.60;74.40;;;;;;5001486;28;20451;-84
2023/10/02 09:30:41;;;;;;;2.30;1.70;;;31.00;74.80;;;;;;5005946;28;20502;-84
2023/10/02 09:33:14;;;;;;;3.70;3.30;;;31.00;74.40;;;;;;4985570;28;20505;-86
2023/10/02 09:35:43;;;;;;;2.03;1.93;;;31.70;75.50;;;;;;5000075;28;20503;-86
2023/10/02 09:38:16;;;;;;;3.03;2.80;;;32.90;71.10;;;;;;4986887;28;20455;-86
2023/10/02 09:43:32;;;;;;;2.00;1.90;;;32.70;69.70;;;;;;5005704;28;20435;-87
2023/10/02 09:46:00;;;;;;;3.80;2.93;;;33.00;69.80;;;;;;4988749;28;20442;-85
2023/10/02 09:48:46;;;;;;;3.80;3.60;;;33.20;70.00;;;;;;4985198;28;20486;-85
2023/10/02 09:51:20;;;;;;;5.50;5.00;;;31.60;70.30;;;;;;4984201;28;20478;-86
2023/10/02 09:54:09;;;;;;;1.87;1.73;;;29.70;76.20;;;;;;4987100;28;20505;-85
2023/10/02 09:57:13;;;;;;;2.03;1.60;;;28.50;80.80;;;;;;4986853;28;20450;-86
2023/10/02 09:59:46;;;;;;;4.50;1.00;;;27.00;88.70;;;;;;5000332;28;20465;-85
2023/10/02 10:02:56;;;;;;;1.43;1.33;;;25.40;93.40;;;;;;4986449;28;20440;-83
2023/10/02 10:07:54;;;;;;;1.27;0.87;;;25.00;96.80;;;;;;5002386;28;20450;-85
2023/10/02 10:13:32;;;;;;;1.63;1.50;;;24.60;99.70;;;;;;5010734;28;20437;-87
2023/10/02 10:16:19;;;;;;;2.30;1.60;;;24.70;99.90;;;;;;5007510;28;20431;-87
2023/10/02 10:22:04;;;;;;;2.20;1.40;;;24.20;99.90;;;;;;5019825;28;20547;-86
2023/10/02 10:27:39;;;;;;;0.50;0.40;;;24.30;99.90;;;;;;5006727;28;21247;-85
2023/10/02 10:30:24;;;;;;;4.33;1.37;;;24.20;99.90;;;;;;5005516;28;20920;-87
2023/10/02 10:35:38;;;;;;;2.47;1.23;;;24.50;99.90;;;;;;5004444;28;20438;-85
2023/10/02 10:38:25;;;;;;;1.47;0.93;;;24.50;99.90;;;;;;4984163;28;20455;-87
2023/10/02 10:41:02;;;;;;;3.13;1.90;;;24.60;99.90;;;;;;4987119;28;20569;-85
2023/10/02 10:43:46;;;;;;;1.13;0.90;;;24.70;99.90;;;;;;5002490;28;20437;-83
2023/10/02 10:46:23;;;;;;;1.27;1.20;;;24.80;99.90;;;;;;5002882;28;20447;-86
2023/10/02 10:49:26;;;;;;;1.63;1.27;;;24.50;99.90;;;;;;4987375;28;20571;-88
2023/10/02 10:51:52;;;;;;;3.90;2.33;;;24.60;99.90;;;;;;5004872;28;20467;-87
2023/10/02 10:54:30;;;;;;;2.33;1.37;;;25.10;99.90;;;;;;4984792;28;21030;-84
2023/10/02 11:03:14;;;;;;;3.37;3.00;;;25.60;99.90;;;;;;5003569;28;20475;-84
2023/10/02 11:05:41;;;;;;;0.80;0.70;;;25.60;99.90;;;;;;4991159;28;20431;-87
2023/10/02 11:08:26;;;;;;;1.23;1.13;;;25.70;98.70;;;;;;4990466;28;20445;-86
2023/10/02 11:11:30;;;;;;;0.90;0.60;;;25.60;99.70;;;;;;4988430;28;20467;-86
2023/10/02 11:13:58;;;;;;;1.73;1.60;;;25.60;99.20;;;;;;5002723;28;22506;-85
2023/10/02 11:16:37;;;;;;;2.63;1.57;;;25.50;99.10;;;;;;4982315;28;20452;-86
2023/10/02 11:22:01;;;;;;;5.20;1.97;;;25.60;98.60;;;;;;5009931;28;20482;-86
2023/10/02 11:24:27;;;;;;;1.30;1.20;;;25.60;99.00;;;;;;5007079;28;20446;-86
2023/10/02 11:27:04;;;;;;;2.83;1.37;;;25.70;98.80;;;;;;4987271;28;20453;-85
2023/10/02 11:30:00;;;;;;;9.93;3.00;;;25.70;98.30;;;;;;4990421;28;20216;-85
2023/10/02 11:32:23;;;;;;;0.50;0.50;;;25.60;98.50;;;;;;5005907;28;20713;-81
2023/10/02 11:34:51;;;;;;;2.00;0.90;;;25.70;98.30;;;;;;4993734;28;20829;-82
2023/10/02 11:37:18;;;;;;;2.97;1.60;;;25.70;97.60;;;;;;4996534;28;20464;-83
2023/10/02 11:39:45;;;;;;;1.47;1.37;;;25.70;98.00;;;;;;5002604;28;20469;-82
2023/10/02 11:42:10;;;;;;;5.13;2.10;;;25.70;97.80;;;;;;4983179;28;20475;-83
2023/10/02 11:44:39;;;;;;;1.70;0.97;;;;;;;;;;4986010;28;20788;-84
2023/10/02 11:47:09;;;;;;;1.87;0.67;;;26.20;96.70;;;;;;4985839;28;20455;-84
2023/10/02 11:49:36;;;;;;;2.60;1.83;;;26.40;97.00;;;;;;5000996;28;20465;-85
2023/10/02 11:52:03;;;;;;;1.10;1.00;;;;;;;;;;4992486;28;20460;-86
2023/10/02 11:54:36;;;;;;;1.07;0.90;;;26.70;96.50;;;;;;4991261;28;20470;-84
2023/10/02 11:57:09;;;;;;;3.97;3.23;;;27.10;96.00;;;;;;4991351;28;20462;-87
2023/10/02 11:59:37;;;;;;;2.93;1.70;;;27.40;95.10;;;;;;5002070;28;20472;-83
2023/10/02 12:02:04;;;;;;;0.70;0.70;;;27.70;94.30;;;;;;5007581;28;20544;-88
2023/10/02 12:04:31;;;;;;;3.77;1.93;;;27.80;94.00;;;;;;5006168;28;20487;-83
2023/10/02 12:06:57;;;;;;;2.90;1.53;;;27.80;92.80;;;;;;5007037;28;20473;-85
2023/10/02 12:09:24;;;;;;;1.90;1.80;;;27.90;91.80;;;;;;5006744;28;20480;-84
2023/10/02 12:11:50;;;;;;;3.80;1.97;;;27.80;91.90;;;;;;5006362;28;20568;-83
2023/10/02 12:14:16;;;;;;;2.47;1.40;;;;;;;;;;5023608;28;20485;-82
2023/10/02 12:16:42;;;;;;;5.57;3.20;;;27.80;91.20;;;;;;4992523;28;20469;-84
2023/10/02 12:19:10;;;;;;;1.47;1.37;;;28.50;91.80;;;;;;4991233;28;20464;-87
2023/10/02 12:21:36;;;;;;;2.07;1.87;;;27.70;91.20;;;;;;5010663;28;20194;-88
2023/10/02 12:24:04;;;;;;;2.73;2.40;;;27.80;91.00;;;;;;5015577;28;20947;-83
2023/10/02 12:26:32;;;;;;;5.73;3.13;;;28.10;88.20;;;;;;5017649;28;20445;-84
2023/10/02 12:28:58;;;;;;;0.90;0.90;;;28.10;88.10;;;;;;4997545;28;20538;-83
2023/10/02 12:31:24;;;;;;;1.37;1.27;;;28.20;88.60;;;;;;5003456;28;20524;-84
2023/10/02 12:33:52;;;;;;;2.30;1.77;;;28.30;87.60;;;;;;4988582;28;20459;-85
2023/10/02 12:36:22;;;;;;;1.33;0.73;;;28.30;89.30;;;;;;4989710;28;20579;-85
2023/10/02 12:38:52;;;;;;;1.37;1.23;;;28.30;88.80;;;;;;5006738;28;21185;-87
2023/10/02 12:41:21;;;;;;;2.43;2.17;;;28.00;86.80;;;;;;4989368;28;20525;-85
2023/10/02 12:43:48;;;;;;;9.00;1.87;;;28.10;87.60;;;;;;4987982;28;20488;-83
2023/10/02 12:46:15;;;;;;;4.40;2.40;;;27.80;88.10;;;;;;4988537;28;20454;-84
2023/10/02 12:48:46;;;;;;;2.00;1.90;;;28.00;89.50;;;;;;4977713;28;20478;-82
2023/10/02 12:51:15;;;;;;;4.93;2.37;;;28.10;88.30;;;;;;5005150;28;20475;-84
2023/10/02 12:53:42;;;;;;;3.50;2.30;;;28.40;87.30;;;;;;4979503;28;20493;-86
2023/10/02 12:56:15;;;;;;;2.13;2.03;;;28.00;89.00;;;;;;4988109;28;20535;-82
2023/10/02 12:58:41;;;;;;;1.33;1.23;;;28.30;85.90;;;;;;4998235;28;20947;-83
2023/10/02 13:01:07;;;;;;;2.17;1.93;;;;;;;;;;4992208;28;20527;-85
2023/10/02 13:03:34;;;;;;;3.20;1.90;;;28.50;83.20;;;;;;4990070;28;20446;-87
2023/10/02 13:06:01;;;;;;;2.43;2.00;;;28.50;83.80;;;;;;5007122;28;20458;-84
2023/10/02 13:08:27;;;;;;;5.13;1.53;;;28.10;83.00;;;;;;4988369;28;20466;-83
2023/10/02 13:10:54;;;;;;;1.93;1.83;;;28.20;83.70;;;;;;5004216;28;20469;-82
2023/10/02 13:13:20;;;;;;;1.03;0.80;;;28.30;85.00;;;;;;4986030;28;20451;-84
2023/10/02 13:15:48;;;;;;;2.70;2.10;;;28.40;84.40;;;;;;4982583;28;20522;-87
2023/10/02 13:18:15;;;;;;;2.63;1.93;;;28.60;81.80;;;;;;5011341;28;20437;-85
2023/10/02 13:20:43;;;;;;;4.10;2.30;;;28.60;82.30;;;;;;4990244;28;20438;-84
2023/10/02 13:23:08;;;;;;;2.50;1.57;;;28.60;82.70;;;;;;4992097;28;20452;-82
2023/10/02 13:25:35;;;;;;;4.23;1.77;;;;;;;;;;5003855;28;20450;-84
2023/10/02 13:28:02;;;;;;;1.80;1.70;;;28.70;82.50;;;;;;4992389;28;20191;-83
2023/10/02 13:30:30;;;;;;;2.93;1.53;;;;;;;;;;4991552;28;20475;-84
2023/10/02 13:32:56;;;;;;;1.90;1.80;;;28.60;81.60;;;;;;5010489;28;20464;-86
2023/10/02 13:35:24;;;;;;;2.03;1.10;;;28.50;81.90;;;;;;4992624;28;20547;-83
2023/10/02 13:37:52;;;;;;;4.70;3.57;;;28.50;83.30;;;;;;4995604;28;20982;-84
2023/10/02 13:40:18;;;;;;;4.37;2.37;;;;;;;;;;4996323;28;20520;-85
2023/10/02 13:42:46;;;;;;;5.33;2.27;;;28.50;81.00;;;;;;4977379;28;20480;-84
2023/10/02 13:45:12;;;;;;;3.43;1.47;;;;;;;;;;4997468;28;20500;-84
2023/10/02 13:47:38;;;;;;;2.20;1.90;;;28.50;80.20;;;;;;4987485;28;20450;-84
2023/10/02 13:50:05;;;;;;;4.10;1.63;;;28.40;81.30;;;;;;4981186;28;20521;-83
2023/10/02 13:52:31;;;;;;;8.17;2.90;;;28.40;80.90;;;;;;4983509;28;20224;-83
2023/10/02 13:54:57;;;;;;;3.73;2.27;;;28.40;81.30;;;;;;4997636;28;20439;-83
2023/10/02 13:57:22;;;;;;;3.37;3.07;;;28.30;80.90;;;;;;4979733;28;20197;-83
2023/10/02 13:59:49;;;;;;;2.27;2.17;;;28.20;80.60;;;;;;5008044;28;20204;-83
2023/10/02 14:02:15;;;;;;;4.93;3.67;;;28.10;81.50;;;;;;4992553;28;20224;-85
2023/10/02 14:04:41;;;;;;;5.73;4.10;;;;;;;;;;4982418;28;20444;-83
2023/10/02 14:07:08;;;;;;;4.30;1.77;;;27.90;83.10;;;;;;4984000;28;20439;-84
2023/10/02 14:09:34;;;;;;;3.00;1.37;;;27.80;82.50;;;;;;5000052;28;20455;-82
2023/10/02 14:11:59;;;;;;;2.93;2.00;;;28.00;83.30;;;;;;4983448;28;20476;-84
2023/10/02 14:14:25;;;;;;;1.53;1.43;;;28.10;82.60;;;;;;4988173;28;20466;-83
2023/10/02 14:16:52;;;;;;;2.93;2.70;;;28.00;83.50;;;;;;4985795;28;20189;-84
2023/10/02 14:19:17;;;;;;;3.67;1.97;;;28.10;82.10;;;;;;5002273;28;20222;-84
2023/10/02 14:21:45;;;;;;;1.97;1.87;;;28.10;82.30;;;;;;4996750;28;20458;-84
2023/10/02 14:24:11;;;;;;;6.53;1.70;;;28.10;81.60;;;;;;5004558;28;20190;-85
2023/10/02 14:26:36;;;;;;;2.53;2.33;;;27.80;81.90;;;;;;5003637;28;20457;-87
2023/10/02 14:29:02;;;;;;;3.33;1.67;;;27.70;83.40;;;;;;5004330;28;20242;-83